createdAt,value
2023-03-15T00:00:26.937Z,98411.75
2023-03-15T00:03:16.007Z,98404.81
2023-03-15T00:06:04.205Z,98411.25
2023-03-15T00:08:46.911Z,98406.66
2023-03-15T00:11:31.927Z,98410.69
2023-03-15T00:14:20.883Z,98414.69
2023-03-15T00:17:09.230Z,98420.63
2023-03-15T00:19:51.968Z,98423.88
2023-03-15T00:22:40.136Z,98427.38
2023-03-15T00:25:23.252Z,98430.03
2023-03-15T00:28:13.213Z,98431.31
2023-03-15T00:30:56.063Z,98434.53
2023-03-15T00:33:45.332Z,98436.59
2023-03-15T00:36:30.906Z,98433.66
2023-03-15T00:39:20.340Z,98439.31
2023-03-15T00:42:04.862Z,98437.47
2023-03-15T00:44:59.768Z,98436.97
2023-03-15T00:47:48.871Z,98442.59
2023-03-15T00:50:31.259Z,98446.34
2023-03-15T00:53:19.930Z,98445.28
2023-03-15T00:56:02.934Z,98448.19
2023-03-15T00:58:51.926Z,98456.75
2023-03-15T01:01:37.234Z,98452.69
2023-03-15T01:04:25.921Z,98457.78
2023-03-15T01:07:08.626Z,98457.47
2023-03-15T01:09:59.872Z,98462.28
2023-03-15T01:12:49.948Z,98460.19
2023-03-15T01:15:38.190Z,98468.25
2023-03-15T01:18:20.911Z,98470.69
2023-03-15T01:21:03.123Z,98475.50
2023-03-15T01:23:52.952Z,98482.22
2023-03-15T01:26:41.168Z,98483.91
2023-03-15T01:29:25.900Z,98486.34
2023-03-15T01:32:10.217Z,98491.72
2023-03-15T01:34:58.863Z,98494.44
2023-03-15T01:37:49.112Z,98495.00
2023-03-15T01:40:31.177Z,98495.31
2023-03-15T01:43:28.903Z,98500.97
2023-03-15T01:46:26.295Z,98506.13
2023-03-15T01:49:38.948Z,98504.28
2023-03-15T01:52:28.210Z,98506.75
2023-03-15T01:55:26.920Z,98508.97
2023-03-15T01:58:20.228Z,98513.31
2023-03-15T02:01:10.992Z,98521.47
2023-03-15T02:04:00.252Z,98528.50
2023-03-15T02:06:55.903Z,98531.78
2023-03-15T02:10:09.936Z,98534.56
2023-03-15T02:13:00.577Z,98537.91
2023-03-15T02:15:53.863Z,98547.34
2023-03-15T02:18:43.245Z,98547.69
2023-03-15T02:21:43.940Z,98556.34
2023-03-15T02:24:45.048Z,98562.63
2023-03-15T02:27:38.993Z,98562.00
2023-03-15T02:30:23.196Z,98569.47
2023-03-15T02:33:15.863Z,98568.94
2023-03-15T02:35:58.264Z,98567.78
2023-03-15T02:38:46.940Z,98575.53
2023-03-15T02:41:46.290Z,98575.94
2023-03-15T02:44:40.878Z,98581.13
2023-03-15T02:47:35.247Z,98587.72
2023-03-15T02:50:17.861Z,98588.59
2023-03-15T02:53:08.161Z,98589.81
2023-03-15T02:55:50.917Z,98596.13
2023-03-15T02:58:39.215Z,98601.97
2023-03-15T03:01:24.028Z,98606.16
2023-03-15T03:04:13.146Z,98610.94
2023-03-15T03:06:55.972Z,98620.56
2023-03-15T03:09:46.484Z,98619.81
2023-03-15T03:12:36.912Z,98618.31
2023-03-15T03:15:25.158Z,98630.91
2023-03-15T03:18:07.928Z,98629.81
2023-03-15T03:20:56.902Z,98629.75
2023-03-15T03:23:41.276Z,98632.13
2023-03-15T03:26:29.944Z,98636.47
2023-03-15T03:29:19.840Z,98628.31
2023-03-15T03:32:04.056Z,98633.25
2023-03-15T03:34:55.882Z,98643.78
2023-03-15T03:37:38.391Z,98643.22
2023-03-15T03:40:37.930Z,98642.94
2023-03-15T03:43:27.082Z,98646.47
2023-03-15T03:46:16.010Z,98647.50
2023-03-15T03:49:01.378Z,98651.28
2023-03-15T03:51:49.828Z,98649.13
2023-03-15T03:54:33.356Z,98650.75
2023-03-15T03:57:23.159Z,98659.00
2023-03-15T04:00:12.854Z,98659.63
2023-03-15T04:02:55.965Z,98663.13
2023-03-15T04:05:47.219Z,98655.88
2023-03-15T04:08:33.847Z,98659.53
2023-03-15T04:11:26.570Z,98661.41
2023-03-15T04:14:13.574Z,98660.34
2023-03-15T04:17:06.045Z,98665.88
2023-03-15T04:19:51.258Z,98659.91
2023-03-15T04:22:45.801Z,98663.38
2023-03-15T04:25:36.853Z,98663.09
2023-03-15T04:28:51.986Z,98664.34
2023-03-15T04:31:54.766Z,98659.41
2023-03-15T04:35:07.860Z,98667.91
2023-03-15T04:38:12.794Z,98666.53
2023-03-15T04:41:19.704Z,98670.94
2023-03-15T04:44:22.624Z,98669.19
2023-03-15T04:47:29.933Z,98665.91
2023-03-15T04:50:31.819Z,98671.78
2023-03-15T04:53:37.012Z,98671.63
2023-03-15T04:56:47.078Z,98668.16
2023-03-15T04:59:50.234Z,98665.78
2023-03-15T05:03:02.990Z,98670.81
2023-03-15T05:06:05.247Z,98673.97
2023-03-15T05:09:22.560Z,98667.78
2023-03-15T05:12:44.941Z,98671.28
2023-03-15T05:15:55.834Z,98674.88
2023-03-15T05:18:59.157Z,98666.50
2023-03-15T05:22:18.149Z,98672.66
2023-03-15T05:25:32.046Z,98663.00
2023-03-15T05:28:55.153Z,98666.38
2023-03-15T05:31:47.053Z,98662.16
2023-03-15T05:35:03.077Z,98655.81
2023-03-15T05:38:16.864Z,98660.72
2023-03-15T05:41:30.092Z,98661.91
2023-03-15T05:44:44.012Z,98655.44
2023-03-15T05:47:55.001Z,98670.34
2023-03-15T05:50:47.110Z,98668.75
2023-03-15T05:53:56.349Z,98670.16
2023-03-15T05:56:54.558Z,98674.88
2023-03-15T06:00:23.757Z,98665.03
2023-03-15T06:03:15.836Z,98666.69
2023-03-15T06:06:16.232Z,98663.81
2023-03-15T06:08:58.832Z,98662.63
2023-03-15T06:11:47.734Z,98662.28
2023-03-15T06:14:29.811Z,98662.47
2023-03-15T06:17:22.696Z,98656.19
2023-03-15T06:20:05.814Z,98662.47
2023-03-15T06:22:55.689Z,98661.16
2023-03-15T06:25:48.966Z,98657.94
2023-03-15T06:28:37.679Z,98653.59
2023-03-15T06:31:28.699Z,98646.06
2023-03-15T06:34:21.804Z,98651.75
2023-03-15T06:37:03.621Z,98641.91
2023-03-15T06:39:52.226Z,98637.50
2023-03-15T06:42:34.632Z,98629.97
2023-03-15T06:45:32.479Z,98634.78
2023-03-15T06:48:27.637Z,98630.25
2023-03-15T06:51:10.061Z,98621.38
2023-03-15T06:53:58.613Z,98614.47
2023-03-15T06:56:42.705Z,98605.59
2023-03-15T06:59:31.658Z,98607.31
2023-03-15T07:02:32.730Z,98603.34
2023-03-15T07:05:20.835Z,98607.31
2023-03-15T07:08:02.674Z,98602.63
2023-03-15T07:10:51.228Z,98594.72
2023-03-15T07:13:32.968Z,98594.75
2023-03-15T07:16:20.904Z,98586.22
2023-03-15T07:19:03.667Z,98588.63
2023-03-15T07:21:52.720Z,98589.34
2023-03-15T07:24:35.579Z,98579.38
2023-03-15T07:27:19.304Z,98579.63
2023-03-15T07:30:08.674Z,98569.72
2023-03-15T07:32:50.712Z,98570.22
2023-03-15T07:35:39.683Z,98563.47
2023-03-15T07:38:32.792Z,98555.75
2023-03-15T07:41:15.639Z,98555.19
2023-03-15T07:44:05.813Z,98553.25
2023-03-15T07:46:54.692Z,98538.81
2023-03-15T07:49:42.918Z,98540.03
2023-03-15T07:52:24.617Z,98536.94
2023-03-15T07:55:13.950Z,98529.50
2023-03-15T07:57:55.695Z,98525.03
2023-03-15T08:00:43.867Z,98526.78
2023-03-15T08:03:25.734Z,98520.25
2023-03-15T08:06:07.816Z,98517.91
2023-03-15T08:08:56.622Z,98519.19
2023-03-15T08:11:45.726Z,98508.44
2023-03-15T08:14:27.973Z,98505.09
2023-03-15T08:17:16.951Z,98489.94
2023-03-15T08:19:58.678Z,98484.44
2023-03-15T08:22:47.664Z,98487.09
2023-03-15T08:25:32.008Z,98481.41
2023-03-15T08:28:20.612Z,98488.88
2023-03-15T08:31:09.710Z,98476.91
2023-03-15T08:33:57.902Z,98473.22
2023-03-15T08:36:39.725Z,98473.69
2023-03-15T08:39:27.889Z,98468.31
2023-03-15T08:42:09.625Z,98469.28
2023-03-15T08:45:00.264Z,98457.06
2023-03-15T08:47:42.711Z,98450.06
2023-03-15T08:50:33.730Z,98460.84
2023-03-15T08:53:15.725Z,98449.75
2023-03-15T08:55:57.966Z,98442.91
2023-03-15T08:58:46.690Z,98436.47
2023-03-15T09:01:35.580Z,98431.66
2023-03-15T09:04:18.605Z,98417.47
2023-03-15T09:07:06.860Z,98428.34
2023-03-15T09:09:49.575Z,98418.72
2023-03-15T09:12:44.682Z,98420.63
2023-03-15T09:15:32.755Z,98405.09
2023-03-15T09:18:14.934Z,98407.81
2023-03-15T09:20:57.778Z,98403.00
2023-03-15T09:23:46.624Z,98399.38
2023-03-15T09:26:34.834Z,98390.22
2023-03-15T09:29:19.677Z,98389.19
2023-03-15T09:32:09.631Z,98390.44
2023-03-15T09:34:52.141Z,98389.81
2023-03-15T09:37:40.686Z,98377.53
2023-03-15T09:40:31.911Z,98374.25
2023-03-15T09:43:21.570Z,98374.13
2023-03-15T09:46:13.599Z,98373.78
2023-03-15T09:49:56.499Z,98368.47
2023-03-15T09:52:51.641Z,98363.94
2023-03-15T09:55:34.792Z,98358.94
2023-03-15T09:58:42.658Z,98359.13
2023-03-15T10:01:25.947Z,98352.59
2023-03-15T10:04:16.678Z,98356.41
2023-03-15T10:07:03.834Z,98352.75
2023-03-15T10:09:53.695Z,98346.84
2023-03-15T10:12:44.835Z,98338.63
2023-03-15T10:15:52.740Z,98338.44
2023-03-15T10:19:04.872Z,98340.06
2023-03-15T10:22:20.993Z,98340.09
2023-03-15T10:25:17.053Z,98343.13
2023-03-15T10:28:37.638Z,98335.13
2023-03-15T10:31:43.440Z,98326.16
2023-03-15T10:34:33.091Z,98321.34
2023-03-15T10:37:17.667Z,98325.00
2023-03-15T10:40:11.088Z,98314.56
2023-03-15T10:42:54.770Z,98314.66
2023-03-15T10:45:43.842Z,98316.91
2023-03-15T10:48:41.561Z,98311.94
2023-03-15T10:51:36.806Z,98307.50
2023-03-15T10:54:26.651Z,98303.97
2023-03-15T10:57:23.873Z,98300.13
2023-03-15T11:00:24.638Z,98299.16
2023-03-15T11:03:22.884Z,98287.00
2023-03-15T11:06:06.701Z,98294.72
2023-03-15T11:08:55.544Z,98295.22
2023-03-15T11:11:44.696Z,98296.19
2023-03-15T11:14:41.833Z,98292.03
2023-03-15T11:17:38.702Z,98294.97
2023-03-15T11:20:37.824Z,98294.47
2023-03-15T11:23:28.944Z,98287.56
2023-03-15T11:26:33.486Z,98286.78
2023-03-15T11:29:35.740Z,98290.66
2023-03-15T11:32:40.679Z,98283.28
2023-03-15T11:35:45.134Z,98288.56
2023-03-15T11:38:45.752Z,98284.09
2023-03-15T11:41:36.758Z,98292.44
2023-03-15T11:44:35.320Z,98288.28
2023-03-15T11:47:48.605Z,98287.16
2023-03-15T11:50:38.172Z,98291.13
2023-03-15T11:53:24.611Z,98288.72
2023-03-15T11:56:26.414Z,98293.53
2023-03-15T11:59:24.673Z,98290.47
2023-03-15T12:02:14.898Z,98284.06
2023-03-15T12:05:17.644Z,98290.47
2023-03-15T12:08:17.039Z,98284.38
2023-03-15T12:11:06.699Z,98286.94
2023-03-15T12:14:04.668Z,98294.16
2023-03-15T12:16:56.615Z,98296.53
2023-03-15T12:19:44.819Z,98288.53
2023-03-15T12:22:27.624Z,98285.44
2023-03-15T12:25:54.104Z,98281.72
2023-03-15T12:28:56.656Z,98284.13
2023-03-15T12:32:11.824Z,98289.41
2023-03-15T12:35:00.615Z,98292.72
2023-03-15T12:37:54.415Z,98299.91
2023-03-15T12:41:08.638Z,98299.75
2023-03-15T12:43:58.845Z,98305.66
2023-03-15T12:46:53.673Z,98309.81
2023-03-15T12:49:45.847Z,98307.38
2023-03-15T12:52:27.638Z,98312.00
2023-03-15T12:55:25.867Z,98312.75
2023-03-15T12:58:12.618Z,98320.09
2023-03-15T13:01:01.887Z,98318.88
2023-03-15T13:03:47.514Z,98322.22
2023-03-15T13:07:08.254Z,98321.84
2023-03-15T13:10:17.700Z,98323.72
2023-03-15T13:13:15.784Z,98314.16
2023-03-15T13:16:24.784Z,98317.78
2023-03-15T13:19:28.829Z,98323.97
2023-03-15T13:22:32.644Z,98320.22
2023-03-15T13:25:27.887Z,98332.44
2023-03-15T13:28:21.672Z,98334.34
2023-03-15T13:31:18.782Z,98339.31
2023-03-15T13:34:11.669Z,98331.75
2023-03-15T13:37:06.884Z,98335.59
2023-03-15T13:40:03.655Z,98344.88
2023-03-15T13:42:52.876Z,98347.88
2023-03-15T13:45:34.618Z,98346.38
2023-03-15T13:48:23.071Z,98345.28
2023-03-15T13:51:23.675Z,98351.53
2023-03-15T13:54:14.876Z,98347.03
2023-03-15T13:57:14.659Z,98351.16
2023-03-15T14:00:09.666Z,98352.69
2023-03-15T14:02:51.877Z,98365.81
2023-03-15T14:05:49.710Z,98366.44
2023-03-15T14:08:47.899Z,98367.03
2023-03-15T14:11:45.580Z,98367.34
2023-03-15T14:14:33.621Z,98372.78
2023-03-15T14:17:37.694Z,98372.50
2023-03-15T14:20:25.405Z,98379.88
2023-03-15T14:23:17.604Z,98376.13
2023-03-15T14:26:09.715Z,98389.94
2023-03-15T14:29:05.974Z,98396.69
2023-03-15T14:31:53.710Z,98399.22
2023-03-15T14:34:44.635Z,98400.41
2023-03-15T14:37:53.924Z,98402.94
2023-03-15T14:40:45.672Z,98407.16
2023-03-15T14:43:27.772Z,98412.31
2023-03-15T14:46:16.701Z,98418.53
2023-03-15T14:49:11.676Z,98426.88
2023-03-15T14:52:12.839Z,98425.34
2023-03-15T14:54:57.603Z,98433.31
2023-03-15T14:57:41.478Z,98442.41
2023-03-15T15:00:32.684Z,98440.75
2023-03-15T15:03:44.023Z,98448.19
2023-03-15T15:06:25.680Z,98455.94
2023-03-15T15:09:13.881Z,98462.56
2023-03-15T15:11:56.052Z,98466.59
2023-03-15T15:14:43.886Z,98460.22
2023-03-15T15:17:25.677Z,98470.28
2023-03-15T15:20:16.380Z,98474.78
2023-03-15T15:22:57.717Z,98480.81
2023-03-15T15:25:46.838Z,98475.91
2023-03-15T15:28:35.469Z,98482.94
2023-03-15T15:31:27.916Z,98477.69
2023-03-15T15:34:09.602Z,98484.94
2023-03-15T15:36:58.024Z,98482.19
2023-03-15T15:39:40.582Z,98483.81
2023-03-15T15:42:29.638Z,98497.38
2023-03-15T15:45:19.079Z,98493.63
2023-03-15T15:48:14.167Z,98495.97
2023-03-15T15:50:55.462Z,98494.97
2023-03-15T15:53:46.651Z,98494.75
2023-03-15T15:56:36.153Z,98502.22
2023-03-15T15:59:27.603Z,98507.56
2023-03-15T16:02:22.966Z,98511.28
2023-03-15T16:05:11.610Z,98521.41
2023-03-15T16:07:54.512Z,98537.41
2023-03-15T16:10:44.648Z,98543.47
2023-03-15T16:13:33.801Z,98557.03
2023-03-15T16:16:23.057Z,98569.31
2023-03-15T16:19:10.973Z,98572.03
2023-03-15T16:21:57.667Z,98584.88
2023-03-15T16:24:47.802Z,98622.00
2023-03-15T16:27:41.569Z,98639.19
2023-03-15T16:30:46.374Z,98626.75
2023-03-15T16:33:38.623Z,98600.88
2023-03-15T16:36:29.667Z,98619.44
2023-03-15T16:39:11.901Z,98651.56
2023-03-15T16:42:00.633Z,98643.34
2023-03-15T16:44:44.674Z,98633.34
2023-03-15T16:47:40.556Z,98624.81
2023-03-15T16:50:27.924Z,98630.91
2023-03-15T16:53:15.668Z,98650.66
2023-03-15T16:56:03.845Z,98649.38
2023-03-15T16:58:45.617Z,98651.13
2023-03-15T17:01:37.183Z,98644.19
2023-03-15T17:04:19.806Z,98631.75
2023-03-15T17:07:08.094Z,98639.88
2023-03-15T17:09:56.732Z,98632.09
2023-03-15T17:12:49.631Z,98647.97
2023-03-15T17:15:36.835Z,98634.03
2023-03-15T17:18:31.933Z,98631.91
2023-03-15T17:21:27.514Z,98638.66
2023-03-15T17:24:20.762Z,98642.88
2023-03-15T17:27:04.206Z,98629.84
2023-03-15T17:29:52.545Z,98637.00
2023-03-15T17:32:34.903Z,98635.94
2023-03-15T17:35:27.652Z,98627.59
2023-03-15T17:38:22.605Z,98634.59
2023-03-15T17:41:38.651Z,98624.09
2023-03-15T17:44:20.759Z,98619.78
2023-03-15T17:47:09.653Z,98619.25
2023-03-15T17:50:04.627Z,98621.09
2023-03-15T17:52:49.017Z,98607.59
2023-03-15T17:55:42.601Z,98610.06
2023-03-15T17:58:27.738Z,98601.41
2023-03-15T18:01:20.837Z,98598.44
2023-03-15T18:04:05.144Z,98590.75
2023-03-15T18:06:53.737Z,98591.19
2023-03-15T18:09:41.763Z,98584.69
2023-03-15T18:12:25.588Z,98589.28
2023-03-15T18:15:08.114Z,98581.22
2023-03-15T18:17:56.640Z,98576.47
2023-03-15T18:20:46.399Z,98577.34
2023-03-15T18:23:27.711Z,98573.56
2023-03-15T18:26:18.194Z,98571.91
2023-03-15T18:28:59.566Z,98568.50
2023-03-15T18:31:48.965Z,98558.56
2023-03-15T18:34:30.639Z,98553.41
2023-03-15T18:37:19.001Z,98551.25
2023-03-15T18:40:01.859Z,98552.88
2023-03-15T18:42:51.032Z,98552.03
2023-03-15T18:45:38.657Z,98550.44
2023-03-15T18:48:40.806Z,98543.91
2023-03-15T18:51:32.698Z,98546.91
2023-03-15T18:54:14.952Z,98538.50
2023-03-15T18:57:03.726Z,98539.84
2023-03-15T18:59:45.989Z,98530.97
2023-03-15T19:02:34.655Z,98529.59
2023-03-15T19:05:17.994Z,98526.91
2023-03-15T19:08:06.632Z,98522.84
2023-03-15T19:10:48.924Z,98523.41
2023-03-15T19:13:37.635Z,98524.19
2023-03-15T19:16:26.664Z,98526.38
2023-03-15T19:19:14.872Z,98528.75
2023-03-15T19:21:56.668Z,98526.88
2023-03-15T19:24:44.910Z,98523.09
2023-03-15T19:27:27.638Z,98519.91
2023-03-15T19:30:21.733Z,98520.16
2023-03-15T19:33:04.099Z,98520.41
2023-03-15T19:35:52.649Z,98519.34
2023-03-15T19:38:36.019Z,98513.16
2023-03-15T19:41:24.942Z,98519.88
2023-03-15T19:44:06.828Z,98509.94
2023-03-15T19:46:55.650Z,98504.00
2023-03-15T19:49:43.856Z,98512.88
2023-03-15T19:52:25.661Z,98515.81
2023-03-15T19:55:21.632Z,98509.63
2023-03-15T19:58:03.645Z,98502.91
2023-03-15T20:00:52.597Z,98503.97
2023-03-15T20:03:40.953Z,98496.94
2023-03-15T20:06:22.642Z,98500.72
2023-03-15T20:09:12.131Z,98498.06
2023-03-15T20:11:53.652Z,98495.31
2023-03-15T20:14:42.603Z,98492.09
2023-03-15T20:17:26.317Z,98492.91
2023-03-15T20:20:18.684Z,98490.50
2023-03-15T20:23:07.681Z,98483.50
2023-03-15T20:25:51.004Z,98486.72
2023-03-15T20:28:39.652Z,98488.34
2023-03-15T20:31:29.843Z,98489.16
2023-03-15T20:34:13.438Z,98491.84
2023-03-15T20:37:03.194Z,98485.34
2023-03-15T20:39:44.857Z,98489.13
2023-03-15T20:42:33.645Z,98487.22
2023-03-15T20:45:16.850Z,98487.22
2023-03-15T20:48:06.246Z,98487.22
2023-03-15T20:50:48.483Z,98482.34
2023-03-15T20:53:36.671Z,98487.19
2023-03-15T20:56:19.028Z,98486.94
2023-03-15T20:59:07.551Z,98484.47
2023-03-15T21:01:49.857Z,98488.25
2023-03-15T21:04:38.754Z,98484.22
2023-03-15T21:07:21.034Z,98491.44
2023-03-15T21:10:09.617Z,98482.28
2023-03-15T21:12:51.853Z,98477.44
2023-03-15T21:15:41.630Z,98472.06
2023-03-15T21:18:31.649Z,98470.44
2023-03-15T21:21:13.777Z,98463.94
2023-03-15T21:24:02.692Z,98472.56
2023-03-15T21:26:47.730Z,98466.63
2023-03-15T21:29:36.664Z,98462.03
2023-03-15T21:32:24.941Z,98455.31
2023-03-15T21:35:06.681Z,98445.88
2023-03-15T21:37:56.919Z,98443.69
2023-03-15T21:40:38.618Z,98441.81
2023-03-15T21:43:27.923Z,98439.66
2023-03-15T21:46:15.669Z,98436.69
2023-03-15T21:49:10.648Z,98437.75
2023-03-15T21:52:00.045Z,98429.66
2023-03-15T21:54:42.836Z,98435.81
2023-03-15T21:57:32.569Z,98440.28
2023-03-15T22:00:27.610Z,98444.84
2023-03-15T22:03:17.572Z,98440.56
2023-03-15T22:05:59.644Z,98446.44
2023-03-15T22:08:48.891Z,98448.59
2023-03-15T22:11:30.582Z,98461.25
2023-03-15T22:14:12.592Z,98449.09
2023-03-15T22:17:01.684Z,98450.19
2023-03-15T22:19:43.517Z,98436.97
2023-03-15T22:22:32.587Z,98439.69
2023-03-15T22:25:21.970Z,98438.59
2023-03-15T22:28:03.570Z,98448.78
2023-03-15T22:30:54.835Z,98446.63
2023-03-15T22:33:36.552Z,98443.91
2023-03-15T22:36:18.638Z,98450.38
2023-03-15T22:39:09.984Z,98447.41
2023-03-15T22:41:51.502Z,98444.72
2023-03-15T22:44:39.557Z,98449.56
2023-03-15T22:47:28.592Z,98451.38
2023-03-15T22:50:21.706Z,98443.03
2023-03-15T22:53:03.613Z,98457.53
2023-03-15T22:55:51.776Z,98454.00
2023-03-15T22:58:34.551Z,98464.72
2023-03-15T23:01:16.669Z,98454.53
2023-03-15T23:04:05.585Z,98453.09
2023-03-15T23:06:47.509Z,98468.97
2023-03-15T23:09:35.811Z,98466.84
2023-03-15T23:12:33.777Z,98456.09
2023-03-15T23:15:20.556Z,98470.34
2023-03-15T23:18:02.603Z,98469.75
2023-03-15T23:20:51.549Z,98460.03
2023-03-15T23:23:40.630Z,98467.25
2023-03-15T23:26:26.020Z,98472.00
2023-03-15T23:29:23.617Z,98477.81
2023-03-15T23:32:05.784Z,98478.56
2023-03-15T23:34:54.660Z,98473.72
2023-03-15T23:37:36.848Z,98475.59
2023-03-15T23:40:26.909Z,98477.47
2023-03-15T23:43:10.013Z,98476.66
2023-03-15T23:46:03.672Z,98479.31
2023-03-15T23:48:59.462Z,98478.78
2023-03-15T23:51:47.644Z,98487.66
2023-03-15T23:54:29.723Z,98492.75
2023-03-15T23:57:20.588Z,98493.81
